createdAt,value
2018-12-01T00:00:27.490Z,9.52
2018-12-01T00:02:56.798Z,9.42
2018-12-01T00:05:25.610Z,9.50
2018-12-01T00:07:54.781Z,9.51
2018-12-01T00:10:23.687Z,9.53
2018-12-01T00:12:52.510Z,9.59
2018-12-01T00:15:25.356Z,9.45
2018-12-01T00:17:54.961Z,9.34
2018-12-01T00:20:24.988Z,9.30
2018-12-01T00:22:53.806Z,9.32
2018-12-01T00:25:22.594Z,9.37
2018-12-01T00:27:51.370Z,9.27
2018-12-01T00:30:22.931Z,9.41
2018-12-01T00:32:52.367Z,9.46
2018-12-01T00:35:21.484Z,9.39
2018-12-01T00:37:50.615Z,9.19
2018-12-01T00:40:20.213Z,9.26
2018-12-01T00:42:49.356Z,9.28
2018-12-01T00:45:22.037Z,9.16
2018-12-01T00:47:51.722Z,9.40
2018-12-01T00:50:22.754Z,9.25
2018-12-01T00:52:52.329Z,9.33
2018-12-01T00:55:21.247Z,9.23
2018-12-01T00:57:50.029Z,9.39
2018-12-01T01:00:21.404Z,9.30
2018-12-01T01:02:51.920Z,9.17
2018-12-01T01:05:21.680Z,9.05
2018-12-01T01:07:50.673Z,9.02
2018-12-01T01:10:20.513Z,9.20
2018-12-01T01:12:49.261Z,9.07
2018-12-01T01:15:18.048Z,9.22
2018-12-01T01:17:47.193Z,9.08
2018-12-01T01:20:17.737Z,9.30
2018-12-01T01:22:46.792Z,9.05
2018-12-01T01:25:16.188Z,9.29
2018-12-01T01:27:45.621Z,9.34
2018-12-01T01:30:18.357Z,9.28
2018-12-01T01:32:47.434Z,9.30
2018-12-01T01:35:16.592Z,9.42
2018-12-01T01:37:45.723Z,9.37
2018-12-01T01:40:15.865Z,9.47
2018-12-01T01:42:44.729Z,9.40
2018-12-01T01:45:17.147Z,9.37
2018-12-01T01:47:46.361Z,9.43
2018-12-01T01:50:17.387Z,9.42
2018-12-01T01:52:46.445Z,9.54
2018-12-01T01:55:15.204Z,9.36
2018-12-01T01:57:44.405Z,9.42
2018-12-01T02:00:15.469Z,9.26
2018-12-01T02:02:45.115Z,9.12
2018-12-01T02:05:14.165Z,9.36
2018-12-01T02:07:42.958Z,9.63
2018-12-01T02:10:12.855Z,9.44
2018-12-01T02:12:41.976Z,9.48
2018-12-01T02:15:11.533Z,9.62
2018-12-01T02:17:40.490Z,9.60
2018-12-01T02:20:13.532Z,9.57
2018-12-01T02:22:42.822Z,9.62
2018-12-01T02:25:15.393Z,9.62
2018-12-01T02:27:44.640Z,9.53
2018-12-01T02:30:17.183Z,9.62
2018-12-01T02:32:46.381Z,9.49
2018-12-01T02:35:18.444Z,9.60
2018-12-01T02:37:47.388Z,9.65
2018-12-01T02:40:16.948Z,9.57
2018-12-01T02:42:45.694Z,9.62
2018-12-01T02:45:25.876Z,9.65
2018-12-01T02:47:55.175Z,9.67
2018-12-01T02:50:26.796Z,9.72
2018-12-01T02:52:56.441Z,9.76
2018-12-01T02:55:25.539Z,9.75
2018-12-01T02:57:54.338Z,9.58
2018-12-01T03:00:23.184Z,9.33
2018-12-01T03:02:52.201Z,9.42
2018-12-01T03:05:22.693Z,9.40
2018-12-01T03:07:52.389Z,9.41
2018-12-01T03:10:22.187Z,9.59
2018-12-01T03:12:52.879Z,9.40
2018-12-01T03:15:21.726Z,9.45
2018-12-01T03:17:51.209Z,9.47
2018-12-01T03:20:20.037Z,9.44
2018-12-01T03:22:49.336Z,9.54
2018-12-01T03:25:20.119Z,9.32
2018-12-01T03:27:51.180Z,9.39
2018-12-01T03:30:23.839Z,9.40
2018-12-01T03:32:53.715Z,9.22
2018-12-01T03:35:23.529Z,9.41
2018-12-01T03:37:52.595Z,9.32
2018-12-01T03:40:22.317Z,9.48
2018-12-01T03:42:52.118Z,9.38
2018-12-01T03:45:21.895Z,9.36
2018-12-01T03:47:51.091Z,9.39
2018-12-01T03:50:24.653Z,9.33
2018-12-01T03:52:55.759Z,9.38
2018-12-01T03:55:26.953Z,9.49
2018-12-01T03:57:55.969Z,9.35
2018-12-01T04:00:26.199Z,9.45
2018-12-01T04:02:56.260Z,9.28
2018-12-01T04:05:25.607Z,9.39
2018-12-01T04:07:54.371Z,9.58
2018-12-01T04:10:23.258Z,9.42
2018-12-01T04:12:52.268Z,9.51
2018-12-01T04:15:21.121Z,9.54
2018-12-01T04:17:50.263Z,9.65
2018-12-01T04:20:19.013Z,9.61
2018-12-01T04:22:47.771Z,9.58
2018-12-01T04:25:16.633Z,9.62
2018-12-01T04:27:45.582Z,9.68
2018-12-01T04:30:17.662Z,9.69
2018-12-01T04:32:46.642Z,9.67
2018-12-01T04:35:17.145Z,9.64
2018-12-01T04:37:47.629Z,9.77
2018-12-01T04:40:16.492Z,9.66
2018-12-01T04:42:46.434Z,9.70
2018-12-01T04:45:15.711Z,9.82
2018-12-01T04:47:44.566Z,9.64
2018-12-01T04:50:14.555Z,9.67
2018-12-01T04:52:43.538Z,9.64
2018-12-01T04:55:14.429Z,9.74
2018-12-01T04:57:43.185Z,9.64
2018-12-01T05:00:14.080Z,9.72
2018-12-01T05:02:43.425Z,9.70
2018-12-01T05:05:15.137Z,9.72
2018-12-01T05:07:43.919Z,9.68
2018-12-01T05:10:13.971Z,9.64
2018-12-01T05:12:42.756Z,9.71
2018-12-01T05:15:14.308Z,9.73
2018-12-01T05:17:43.085Z,9.76
2018-12-01T05:20:13.745Z,9.69
2018-12-01T05:22:42.821Z,9.61
2018-12-01T05:25:11.669Z,9.70
2018-12-01T05:27:40.445Z,9.74
2018-12-01T05:30:09.366Z,9.81
2018-12-01T05:32:38.933Z,9.76
2018-12-01T05:35:12.051Z,9.66
2018-12-01T05:37:41.423Z,9.62
2018-12-01T05:40:11.190Z,9.52
2018-12-01T05:42:39.940Z,9.71
2018-12-01T05:45:24.566Z,9.68
2018-12-01T05:47:53.403Z,9.73
2018-12-01T05:50:22.170Z,9.78
2018-12-01T05:52:51.796Z,9.63
2018-12-01T05:55:20.586Z,9.21
2018-12-01T05:57:49.596Z,9.24
2018-12-01T06:00:18.877Z,8.40
2018-12-01T06:02:47.662Z,8.96
2018-12-01T06:05:16.549Z,9.06
2018-12-01T06:07:45.844Z,9.12
2018-12-01T06:10:21.853Z,9.51
2018-12-01T06:12:51.992Z,8.90
2018-12-01T06:15:21.617Z,9.14
2018-12-01T06:17:50.568Z,9.30
2018-12-01T06:20:23.415Z,9.25
2018-12-01T06:22:52.510Z,8.87
2018-12-01T06:25:22.569Z,9.27
2018-12-01T06:27:51.558Z,9.24
2018-12-01T06:30:20.921Z,9.34
2018-12-01T06:32:51.699Z,9.47
2018-12-01T06:35:20.509Z,9.37
2018-12-01T06:37:50.621Z,9.34
2018-12-01T06:40:20.272Z,9.20
2018-12-01T06:42:49.394Z,9.02
2018-12-01T06:45:18.427Z,9.07
2018-12-01T06:47:47.451Z,8.85
2018-12-01T06:50:22.853Z,8.86
2018-12-01T06:52:52.730Z,8.99
2018-12-01T06:55:22.721Z,8.77
2018-12-01T06:57:51.898Z,9.06
2018-12-01T07:00:24.126Z,8.87
2018-12-01T07:02:54.190Z,8.97
2018-12-01T07:05:23.310Z,8.83
2018-12-01T07:07:52.197Z,8.89
2018-12-01T07:10:21.933Z,8.99
2018-12-01T07:12:56.899Z,9.13
2018-12-01T07:15:32.117Z,9.00
2018-12-01T07:18:01.284Z,9.25
2018-12-01T07:20:30.045Z,9.10
2018-12-01T07:22:59.349Z,9.06
2018-12-01T07:25:28.110Z,8.99
2018-12-01T07:27:56.906Z,8.59
2018-12-01T07:30:25.751Z,8.59
2018-12-01T07:32:54.522Z,9.31
2018-12-01T07:35:23.635Z,8.80
2018-12-01T07:37:52.447Z,8.77
2018-12-01T07:40:21.185Z,8.96
2018-12-01T07:42:52.750Z,8.81
2018-12-01T07:45:22.114Z,8.66
2018-12-01T07:47:50.881Z,9.09
2018-12-01T07:50:19.750Z,9.26
2018-12-01T07:52:51.217Z,9.24
2018-12-01T07:55:21.178Z,9.07
2018-12-01T07:57:50.014Z,9.31
2018-12-01T08:00:18.813Z,9.22
2018-12-01T08:02:48.610Z,8.59
2018-12-01T08:05:17.921Z,8.66
2018-12-01T08:07:46.793Z,9.33
2018-12-01T08:10:16.145Z,9.55
2018-12-01T08:12:45.015Z,9.04
2018-12-01T08:15:15.541Z,9.30
2018-12-01T08:17:44.819Z,8.90
2018-12-01T08:20:14.463Z,8.78
2018-12-01T08:22:43.246Z,9.05
2018-12-01T08:25:20.610Z,9.42
2018-12-01T08:27:52.743Z,9.68
2018-12-01T08:30:22.895Z,9.55
2018-12-01T08:32:51.661Z,8.94
2018-12-01T08:35:20.873Z,9.24
2018-12-01T08:37:49.973Z,9.08
2018-12-01T08:40:20.264Z,9.60
2018-12-01T08:42:49.130Z,9.25
2018-12-01T08:45:17.910Z,9.63
2018-12-01T08:47:46.698Z,9.56
2018-12-01T08:50:19.346Z,9.49
2018-12-01T08:52:48.144Z,9.62
2018-12-01T08:55:18.714Z,9.37
2018-12-01T08:57:47.847Z,9.76
2018-12-01T09:00:18.796Z,9.39
2018-12-01T09:02:49.338Z,9.83
2018-12-01T09:05:18.118Z,9.62
2018-12-01T09:07:46.901Z,9.84
2018-12-01T09:10:16.022Z,9.57
2018-12-01T09:12:44.862Z,10.14
2018-12-01T09:15:14.010Z,9.82
2018-12-01T09:17:42.805Z,9.87
2018-12-01T09:20:12.408Z,9.68
2018-12-01T09:22:43.021Z,9.79
2018-12-01T09:25:12.965Z,9.96
2018-12-01T09:27:41.741Z,9.97
2018-12-01T09:30:26.266Z,10.02
2018-12-01T09:32:55.042Z,9.54
2018-12-01T09:35:23.857Z,9.76
2018-12-01T09:37:52.718Z,9.86
2018-12-01T09:40:22.336Z,10.02
2018-12-01T09:42:51.382Z,10.08
2018-12-01T09:45:22.765Z,10.10
2018-12-01T09:47:53.130Z,10.18
2018-12-01T09:50:21.951Z,10.19
2018-12-01T09:52:52.401Z,10.27
2018-12-01T09:55:23.306Z,10.31
2018-12-01T09:57:52.637Z,10.33
2018-12-01T10:00:25.557Z,10.43
2018-12-01T10:02:54.692Z,10.44
2018-12-01T10:05:23.575Z,10.54
2018-12-01T10:07:52.340Z,10.66
2018-12-01T10:10:22.382Z,10.70
2018-12-01T10:12:52.251Z,10.78
2018-12-01T10:15:23.867Z,10.96
2018-12-01T10:17:52.242Z,11.00
2018-12-01T10:20:22.872Z,11.04
2018-12-01T10:22:52.149Z,11.07
2018-12-01T10:25:20.981Z,11.10
2018-12-01T10:27:49.825Z,11.12
2018-12-01T10:30:19.680Z,11.18
2018-12-01T10:32:49.366Z,11.23
2018-12-01T10:35:23.094Z,11.25
2018-12-01T10:37:57.257Z,11.27
2018-12-01T10:40:26.939Z,11.44
2018-12-01T10:42:55.750Z,11.47
2018-12-01T10:45:24.553Z,11.53
2018-12-01T10:47:53.429Z,11.58
2018-12-01T10:50:23.293Z,11.58
2018-12-01T10:52:54.426Z,11.61
2018-12-01T10:55:27.988Z,11.64
2018-12-01T10:58:03.052Z,11.66
2018-12-01T11:00:37.773Z,11.68
2018-12-01T11:03:12.697Z,11.70
2018-12-01T11:05:42.043Z,11.74
2018-12-01T11:08:12.272Z,11.88
2018-12-01T11:10:41.564Z,11.79
2018-12-01T11:13:10.394Z,11.79
2018-12-01T11:15:39.645Z,11.78
2018-12-01T11:18:09.019Z,11.80
2018-12-01T11:20:39.252Z,11.82
2018-12-01T11:23:08.481Z,11.82
2018-12-01T11:25:38.019Z,11.86
2018-12-01T11:28:07.042Z,11.86
2018-12-01T11:30:38.084Z,11.86
2018-12-01T11:33:07.208Z,11.89
2018-12-01T11:35:36.168Z,11.90
2018-12-01T11:38:05.762Z,11.90
2018-12-01T11:40:34.594Z,12.03
2018-12-01T11:43:03.413Z,12.28
2018-12-01T11:45:32.701Z,12.53
2018-12-01T11:48:01.505Z,12.42
2018-12-01T11:50:30.341Z,12.27
2018-12-01T11:52:59.193Z,12.21
2018-12-01T11:55:28.167Z,12.18
2018-12-01T11:57:57.321Z,12.20
2018-12-01T12:00:26.810Z,12.17
2018-12-01T12:02:56.252Z,12.16
2018-12-01T12:05:25.221Z,12.12
2018-12-01T12:08:05.137Z,12.09
2018-12-01T12:10:34.248Z,11.99
2018-12-01T12:13:03.054Z,11.96
2018-12-01T12:15:31.850Z,11.94
2018-12-01T12:18:01.898Z,11.94
2018-12-01T12:20:31.308Z,12.01
2018-12-01T12:23:00.516Z,12.09
2018-12-01T12:25:29.635Z,12.28
2018-12-01T12:27:58.422Z,12.53
2018-12-01T12:30:27.234Z,12.60
2018-12-01T12:32:56.040Z,12.77
2018-12-01T12:35:25.070Z,12.76
2018-12-01T12:37:54.559Z,12.83
2018-12-01T12:40:26.516Z,12.78
2018-12-01T12:42:57.140Z,12.75
2018-12-01T12:45:27.202Z,12.70
2018-12-01T12:47:56.335Z,12.64
2018-12-01T12:50:25.117Z,12.57
2018-12-01T12:52:55.134Z,12.55
2018-12-01T12:55:25.083Z,12.56
2018-12-01T12:57:53.880Z,12.55
2018-12-01T13:00:24.502Z,12.56
2018-12-01T13:03:01.541Z,12.58
2018-12-01T13:05:32.545Z,12.58
2018-12-01T13:08:01.386Z,12.57
2018-12-01T13:10:30.156Z,12.58
2018-12-01T13:12:59.447Z,12.63
2018-12-01T13:15:28.210Z,12.70
2018-12-01T13:17:57.003Z,12.78
2018-12-01T13:20:25.821Z,12.87
2018-12-01T13:22:56.841Z,12.90
2018-12-01T13:25:25.627Z,12.92
2018-12-01T13:28:00.677Z,13.01
2018-12-01T13:30:30.978Z,12.94
2018-12-01T13:32:59.752Z,12.90
2018-12-01T13:35:28.705Z,12.89
2018-12-01T13:37:57.482Z,12.85
2018-12-01T13:40:26.291Z,12.86
2018-12-01T13:42:55.421Z,12.88
2018-12-01T13:45:24.198Z,12.87
2018-12-01T13:47:53.305Z,12.86
2018-12-01T13:50:22.266Z,12.84
2018-12-01T13:52:54.481Z,12.84
2018-12-01T13:55:23.506Z,12.84
2018-12-01T13:57:52.874Z,12.85
2018-12-01T14:00:23.245Z,12.86
2018-12-01T14:02:52.029Z,12.88
2018-12-01T14:05:20.978Z,12.90
2018-12-01T14:07:50.479Z,12.91
2018-12-01T14:10:22.228Z,12.93
2018-12-01T14:12:52.235Z,12.98
2018-12-01T14:15:22.765Z,13.05
2018-12-01T14:17:51.829Z,13.11
2018-12-01T14:20:21.163Z,13.18
2018-12-01T14:22:50.711Z,13.21
2018-12-01T14:25:20.584Z,13.24
2018-12-01T14:27:52.897Z,13.21
2018-12-01T14:30:22.014Z,13.20
2018-12-01T14:32:51.041Z,13.16
2018-12-01T14:35:22.311Z,13.13
2018-12-01T14:37:52.489Z,13.09
2018-12-01T14:40:21.593Z,13.06
2018-12-01T14:42:50.628Z,13.01
2018-12-01T14:45:19.419Z,12.96
2018-12-01T14:47:48.193Z,12.91
2018-12-01T14:50:17.185Z,12.89
2018-12-01T14:52:46.478Z,12.88
2018-12-01T14:55:16.381Z,12.83
2018-12-01T14:57:45.610Z,12.81
2018-12-01T15:00:16.755Z,12.79
2018-12-01T15:02:45.855Z,12.75
2018-12-01T15:05:14.861Z,12.68
2018-12-01T15:07:43.822Z,12.66
2018-12-01T15:10:13.922Z,12.59
2018-12-01T15:12:43.031Z,12.56
2018-12-01T15:15:13.559Z,12.56
2018-12-01T15:17:42.733Z,12.52
2018-12-01T15:20:12.601Z,12.53
2018-12-01T15:22:41.877Z,12.52
2018-12-01T15:25:11.843Z,12.48
2018-12-01T15:27:40.943Z,12.46
2018-12-01T15:30:15.114Z,12.41
2018-12-01T15:32:46.165Z,12.40
2018-12-01T15:35:15.169Z,12.36
2018-12-01T15:37:44.460Z,12.32
2018-12-01T15:40:17.531Z,12.33
2018-12-01T15:42:46.446Z,12.30
2018-12-01T15:45:16.259Z,12.24
2018-12-01T15:47:45.691Z,12.25
2018-12-01T15:50:18.589Z,12.23
2018-12-01T15:52:50.126Z,12.19
2018-12-01T15:55:19.466Z,12.17
2018-12-01T15:57:49.146Z,12.18
2018-12-01T16:00:19.858Z,12.16
2018-12-01T16:02:48.722Z,12.14
2018-12-01T16:05:18.622Z,12.12
2018-12-01T16:07:48.582Z,12.10
2018-12-01T16:10:18.441Z,12.11
2018-12-01T16:12:48.519Z,12.08
2018-12-01T16:15:19.165Z,12.01
2018-12-01T16:17:48.242Z,12.02
2018-12-01T16:20:17.327Z,11.96
2018-12-01T16:22:55.291Z,11.96
2018-12-01T16:25:35.495Z,11.91
2018-12-01T16:28:11.731Z,11.85
2018-12-01T16:30:46.663Z,11.87
2018-12-01T16:33:22.129Z,11.88
2018-12-01T16:35:52.072Z,11.91
2018-12-01T16:38:28.319Z,11.91
2018-12-01T16:43:43.689Z,11.92
2018-12-01T16:46:17.255Z,11.93
2018-12-01T16:48:57.288Z,11.86
2018-12-01T16:51:28.087Z,11.83
2018-12-01T16:54:02.516Z,11.76
2018-12-01T16:56:35.898Z,11.82
2018-12-01T16:59:08.937Z,11.86
2018-12-01T17:01:37.804Z,11.82
2018-12-01T17:04:06.811Z,11.81
2018-12-01T17:06:35.587Z,11.76
2018-12-01T17:09:05.691Z,11.73
2018-12-01T17:11:34.538Z,11.69
2018-12-01T17:14:03.706Z,11.66
2018-12-01T17:16:32.489Z,11.69
2018-12-01T17:19:01.266Z,11.65
2018-12-01T17:21:30.053Z,11.63
2018-12-01T17:23:58.858Z,11.65
2018-12-01T17:26:27.973Z,11.58
2018-12-01T17:28:56.764Z,11.61
2018-12-01T17:31:25.920Z,11.61
2018-12-01T17:33:54.894Z,11.52
2018-12-01T17:36:24.003Z,11.53
2018-12-01T17:38:52.786Z,11.45
2018-12-01T17:41:24.729Z,11.43
2018-12-01T17:43:56.970Z,11.43
2018-12-01T17:46:25.822Z,11.46
2018-12-01T17:48:55.199Z,11.31
2018-12-01T17:51:23.990Z,11.37
2018-12-01T17:53:54.959Z,11.35
2018-12-01T17:56:24.184Z,11.32
2018-12-01T17:58:53.003Z,11.33
2018-12-01T18:01:22.120Z,11.37
2018-12-01T18:03:50.938Z,11.34
2018-12-01T18:06:19.755Z,11.33
2018-12-01T18:08:49.235Z,11.42
2018-12-01T18:11:18.245Z,11.35
2018-12-01T18:13:47.045Z,11.38
2018-12-01T18:16:15.852Z,11.38
2018-12-01T18:18:44.825Z,11.42
2018-12-01T18:21:13.615Z,11.45
2018-12-01T18:23:42.402Z,11.43
2018-12-01T18:26:11.531Z,11.43
2018-12-01T18:28:43.357Z,11.33
2018-12-01T18:31:21.689Z,11.27
2018-12-01T18:33:53.522Z,11.31
2018-12-01T18:36:22.312Z,11.23
2018-12-01T18:38:51.733Z,11.32
2018-12-01T18:41:20.709Z,11.31
2018-12-01T18:43:49.913Z,11.36
2018-12-01T18:46:18.680Z,11.44
2018-12-01T18:48:47.482Z,11.46
2018-12-01T18:51:16.301Z,11.43
2018-12-01T18:53:45.086Z,11.37
2018-12-01T18:56:14.213Z,11.35
2018-12-01T18:58:43.001Z,11.26
2018-12-01T19:01:11.889Z,11.37
2018-12-01T19:03:40.699Z,11.33
2018-12-01T19:06:09.513Z,11.30
2018-12-01T19:08:38.563Z,11.31
2018-12-01T19:11:08.034Z,11.30
2018-12-01T19:13:36.841Z,11.38
2018-12-01T19:16:06.621Z,11.40
2018-12-01T19:18:35.405Z,11.27
2018-12-01T19:21:04.519Z,11.26
2018-12-01T19:23:33.828Z,11.22
2018-12-01T19:26:02.615Z,11.12
2018-12-01T19:28:31.407Z,11.13
2018-12-01T19:31:00.210Z,11.24
2018-12-01T19:33:29.082Z,11.29
2018-12-01T19:35:57.871Z,11.46
2018-12-01T19:38:28.410Z,11.34
2018-12-01T19:40:58.905Z,11.22
2018-12-01T19:43:27.690Z,11.22
2018-12-01T19:45:56.505Z,11.31
2018-12-01T19:48:25.614Z,11.26
2018-12-01T19:50:54.420Z,11.35
2018-12-01T19:53:23.553Z,11.27
2018-12-01T19:55:53.526Z,11.27
2018-12-01T19:58:25.439Z,11.28
2018-12-01T20:00:55.335Z,11.23
2018-12-01T20:03:25.186Z,11.27
2018-12-01T20:05:54.538Z,11.28
2018-12-01T20:08:23.955Z,11.25
2018-12-01T20:10:58.998Z,11.22
2018-12-01T20:13:49.249Z,11.25
2018-12-01T20:16:25.155Z,11.19
2018-12-01T20:18:54.376Z,11.18
2018-12-01T20:21:23.673Z,11.26
2018-12-01T20:23:52.794Z,11.21
2018-12-01T20:26:21.969Z,11.18
2018-12-01T20:28:51.409Z,11.19
2018-12-01T20:31:20.787Z,11.20
2018-12-01T20:33:53.423Z,11.30
2018-12-01T20:36:25.290Z,11.35
2018-12-01T20:39:00.287Z,11.35
2018-12-01T20:41:29.082Z,11.25
2018-12-01T20:43:58.116Z,11.23
2018-12-01T20:46:26.892Z,11.28
2018-12-01T20:48:55.909Z,11.25
2018-12-01T20:51:24.714Z,11.32
2018-12-01T20:53:53.593Z,11.40
2018-12-01T20:56:27.189Z,11.22
2018-12-01T20:58:56.058Z,11.14
2018-12-01T21:01:24.865Z,11.22
2018-12-01T21:03:53.669Z,11.30
2018-12-01T21:06:22.841Z,11.32
2018-12-01T21:08:52.164Z,11.25
2018-12-01T21:11:20.984Z,11.29
2018-12-01T21:13:50.044Z,11.31
2018-12-01T21:16:18.901Z,11.26
2018-12-01T21:18:48.032Z,11.23
2018-12-01T21:21:16.857Z,11.26
2018-12-01T21:23:45.655Z,11.17
2018-12-01T21:26:14.626Z,11.21
2018-12-01T21:28:43.471Z,11.12
2018-12-01T21:31:13.073Z,11.15
2018-12-01T21:33:41.858Z,10.95
2018-12-01T21:36:10.738Z,11.05
2018-12-01T21:38:39.541Z,10.99
2018-12-01T21:41:08.381Z,11.00
2018-12-01T21:43:37.769Z,10.99
2018-12-01T21:46:07.081Z,10.92
2018-12-01T21:48:35.943Z,10.96
2018-12-01T21:51:04.801Z,11.03
2018-12-01T21:53:33.933Z,10.93
2018-12-01T21:56:02.773Z,10.84
2018-12-01T21:58:31.593Z,10.93
2018-12-01T22:01:01.199Z,10.90
2018-12-01T22:03:30.734Z,10.85
2018-12-01T22:06:01.101Z,10.86
2018-12-01T22:08:30.865Z,10.75
2018-12-01T22:10:59.951Z,10.87
2018-12-01T22:13:29.016Z,10.80
2018-12-01T22:15:57.833Z,10.75
2018-12-01T22:18:26.845Z,10.80
2018-12-01T22:20:56.052Z,10.81
2018-12-01T22:23:25.196Z,10.71
2018-12-01T22:25:53.978Z,10.64
2018-12-01T22:28:22.841Z,10.48
2018-12-01T22:30:52.561Z,10.53
2018-12-01T22:33:25.242Z,10.65
2018-12-01T22:35:54.491Z,10.68
2018-12-01T22:38:24.513Z,10.72
2018-12-01T22:40:53.833Z,10.69
2018-12-01T22:43:23.153Z,10.68
2018-12-01T22:45:52.293Z,10.66
2018-12-01T22:48:22.558Z,10.64
2018-12-01T22:50:52.637Z,10.65
2018-12-01T22:53:21.644Z,10.75
2018-12-01T22:55:50.806Z,10.74
2018-12-01T22:58:20.657Z,10.77
2018-12-01T23:00:51.703Z,10.78
2018-12-01T23:03:20.943Z,10.92
2018-12-01T23:05:50.182Z,10.99
2018-12-01T23:08:20.607Z,10.98
2018-12-01T23:10:50.035Z,10.98
2018-12-01T23:13:18.907Z,10.86
2018-12-01T23:15:47.717Z,10.89
2018-12-01T23:18:17.846Z,10.94
2018-12-01T23:20:47.428Z,11.09
2018-12-01T23:23:16.437Z,11.03
2018-12-01T23:25:45.343Z,11.06
2018-12-01T23:28:14.168Z,11.06
2018-12-01T23:30:46.558Z,11.00
2018-12-01T23:33:20.381Z,10.95
2018-12-01T23:35:49.498Z,10.96
2018-12-01T23:38:19.037Z,10.92
2018-12-01T23:40:47.801Z,10.99
2018-12-01T23:43:16.574Z,11.01
2018-12-01T23:45:46.057Z,11.05
2018-12-01T23:48:15.465Z,10.97
2018-12-01T23:50:52.447Z,10.94
2018-12-01T23:53:21.733Z,11.03
2018-12-01T23:55:50.870Z,11.02
2018-12-01T23:58:23.293Z,11.07
